Time;durP1;ratioP1;P1;durP2;ratioP2;P2;SDS_P1;SDS_P2;PMS_P1;PMS_P2;Temp;Humidity;BMP_temperature;BMP_pressure;BME280_temperature;BME280_humidity;BME280_pressure;Samples;Min_cycle;Max_cycle;Signal;HPM_P1;HPM_P2
2022/05/07 00:01:57;;;;;;;7.67;6.37;;;8.20;99.90;;;;;;4933861;29;20270;-71
2022/05/07 00:04:22;;;;;;;7.10;6.40;;;8.20;99.90;;;;;;4933477;29;20547;-71
2022/05/07 00:06:48;;;;;;;6.70;6.10;;;8.20;99.90;;;;;;4934122;29;20525;-71
2022/05/07 00:09:14;;;;;;;7.13;6.30;;;8.10;99.90;;;;;;4933731;29;20207;-70
2022/05/07 00:11:40;;;;;;;6.57;5.97;;;8.10;99.90;;;;;;4933752;29;20486;-71
2022/05/07 00:14:05;;;;;;;6.77;5.43;;;8.00;99.90;;;;;;4933605;29;20176;-70
2022/05/07 00:19:15;;;;;;;7.97;6.80;;;8.00;99.90;;;;;;4933685;29;20226;-71
2022/05/07 00:21:40;;;;;;;13.03;6.60;;;7.90;99.90;;;;;;4933597;29;20476;-71
2022/05/07 00:24:06;;;;;;;12.60;5.73;;;7.90;99.90;;;;;;4933842;29;20259;-71
2022/05/07 00:26:32;;;;;;;8.53;6.50;;;7.90;99.90;;;;;;4933794;29;20180;-71
2022/05/07 00:28:57;;;;;;;10.43;6.87;;;7.80;99.90;;;;;;4933756;29;20427;-71
2022/05/07 00:31:23;;;;;;;8.97;6.80;;;7.80;99.90;;;;;;4933248;29;20239;-71
2022/05/07 00:33:48;;;;;;;11.13;6.30;;;7.80;99.90;;;;;;4933874;29;20675;-71
2022/05/07 00:36:14;;;;;;;9.80;6.33;;;7.80;99.90;;;;;;4933319;29;20262;-71
2022/05/07 00:38:39;;;;;;;8.00;5.93;;;7.80;99.90;;;;;;4933613;29;20279;-70
2022/05/07 00:41:05;;;;;;;8.47;6.37;;;7.70;99.90;;;;;;4933467;29;20206;-71
2022/05/07 00:43:38;;;;;;;8.00;6.50;;;7.70;99.90;;;;;;4933665;29;20191;-71
2022/05/07 00:46:05;;;;;;;10.33;7.60;;;7.70;99.90;;;;;;4933412;29;20184;-71
2022/05/07 00:48:31;;;;;;;6.83;6.13;;;7.60;99.90;;;;;;4933464;29;20422;-71
2022/05/07 00:53:42;;;;;;;6.90;6.20;;;7.60;99.90;;;;;;4933927;29;20502;-70
2022/05/07 00:56:08;;;;;;;9.23;5.73;;;7.60;99.90;;;;;;4933372;29;20502;-70
2022/05/07 00:58:37;;;;;;;6.97;6.27;;;7.50;99.90;;;;;;4933440;29;20191;-71
2022/05/07 02:32:30;;;;;;;7.83;6.57;;;6.70;99.90;;;;;;5170105;23;20485;-71
2022/05/07 02:34:55;;;;;;;7.50;5.80;;;6.70;99.90;;;;;;4932125;29;20460;-71
2022/05/07 02:37:21;;;;;;;7.07;6.07;;;6.70;99.90;;;;;;4933875;29;20263;-71
2022/05/07 02:39:48;;;;;;;5.73;5.20;;;6.70;99.90;;;;;;4935020;29;20669;-71
2022/05/07 02:44:58;;;;;;;8.23;6.60;;;6.60;99.90;;;;;;4935383;29;20483;-70
2022/05/07 02:47:24;;;;;;;7.23;6.53;;;6.60;99.90;;;;;;4935030;29;20413;-71
2022/05/07 02:49:50;;;;;;;10.03;6.20;;;6.60;99.90;;;;;;4935106;29;20247;-71
2022/05/07 02:52:15;;;;;;;8.50;7.10;;;6.50;99.90;;;;;;4934867;29;20202;-71
2022/05/07 02:54:41;;;;;;;9.13;6.23;;;6.50;99.90;;;;;;4935040;29;20204;-71
2022/05/07 02:57:06;;;;;;;6.80;6.13;;;6.50;99.90;;;;;;4935003;29;20634;-70
2022/05/07 02:59:32;;;;;;;6.70;5.53;;;6.50;99.90;;;;;;4934756;29;20221;-72
2022/05/07 03:01:57;;;;;;;6.63;5.40;;;6.50;99.90;;;;;;4934734;29;20226;-71
2022/05/07 03:04:23;;;;;;;6.47;5.77;;;6.40;99.90;;;;;;4934641;29;20702;-71
2022/05/07 03:06:49;;;;;;;6.03;5.53;;;6.40;99.90;;;;;;4934984;29;20183;-70
2022/05/07 03:09:14;;;;;;;6.53;5.93;;;6.40;99.90;;;;;;4934700;29;20189;-70
2022/05/07 03:11:40;;;;;;;6.50;5.80;;;6.40;99.90;;;;;;4934533;29;20197;-70
2022/05/07 03:14:06;;;;;;;7.60;6.17;;;6.40;99.90;;;;;;4934607;29;20719;-70
2022/05/07 03:16:32;;;;;;;7.97;5.77;;;6.40;99.90;;;;;;4934645;29;20205;-71
2022/05/07 03:18:58;;;;;;;6.50;5.90;;;6.30;99.90;;;;;;4934636;29;20445;-71
2022/05/07 03:21:23;;;;;;;7.80;5.73;;;6.30;99.90;;;;;;4934121;29;20684;-72
2022/05/07 03:23:49;;;;;;;7.23;5.93;;;6.30;99.90;;;;;;4934596;29;20178;-71
2022/05/07 03:26:16;;;;;;;7.40;5.97;;;6.30;99.90;;;;;;4934316;29;20184;-71
2022/05/07 03:28:42;;;;;;;9.50;6.80;;;6.20;99.90;;;;;;4933729;29;20177;-72
2022/05/07 03:31:07;;;;;;;6.57;5.70;;;6.20;99.90;;;;;;4934216;29;20449;-73
2022/05/07 03:33:33;;;;;;;6.77;6.13;;;6.20;99.90;;;;;;4934388;29;20204;-71
2022/05/07 03:35:58;;;;;;;10.53;5.83;;;6.20;99.90;;;;;;4934465;29;20211;-72
2022/05/07 03:38:24;;;;;;;6.90;5.63;;;6.20;99.90;;;;;;4934264;29;20171;-72
2022/05/07 03:40:50;;;;;;;6.70;6.07;;;6.20;99.90;;;;;;4934073;29;20630;-72
2022/05/07 03:43:16;;;;;;;6.50;5.10;;;6.20;99.90;;;;;;4934177;29;20245;-71
2022/05/07 03:45:42;;;;;;;7.33;5.23;;;6.10;99.90;;;;;;4934240;29;20214;-71
2022/05/07 03:48:09;;;;;;;8.10;6.20;;;6.20;99.90;;;;;;4934260;29;20469;-71
2022/05/07 03:50:34;;;;;;;11.17;6.50;;;6.10;99.90;;;;;;4933751;29;20427;-70
2022/05/07 03:55:44;;;;;;;6.30;5.70;;;6.10;99.90;;;;;;4934204;29;20184;-71
2022/05/07 03:58:11;;;;;;;7.70;5.60;;;6.10;99.90;;;;;;4934181;29;20497;-71
2022/05/07 04:00:37;;;;;;;6.23;5.73;;;6.10;99.90;;;;;;4933717;29;20184;-72
2022/05/07 04:03:04;;;;;;;8.93;6.50;;;6.10;99.90;;;;;;4934166;29;20490;-72
2022/05/07 04:05:29;;;;;;;7.90;5.03;;;6.10;99.90;;;;;;4933938;29;20420;-72
2022/05/07 04:07:55;;;;;;;7.07;6.47;;;6.10;99.90;;;;;;4934230;29;20420;-71
2022/05/07 04:10:21;;;;;;;6.60;5.90;;;6.10;99.90;;;;;;4933852;29;20213;-72
2022/05/07 04:12:48;;;;;;;7.40;6.70;;;6.10;99.90;;;;;;4933862;29;20203;-72
2022/05/07 04:15:14;;;;;;;6.47;5.60;;;6.10;99.90;;;;;;4933106;29;20313;-72
2022/05/07 04:17:40;;;;;;;7.67;5.67;;;6.20;99.90;;;;;;4933950;29;20425;-72
2022/05/07 04:20:06;;;;;;;7.00;6.33;;;6.20;99.90;;;;;;4933979;29;20422;-72
2022/05/07 04:22:32;;;;;;;5.50;4.93;;;6.20;99.90;;;;;;4933514;29;20713;-72
2022/05/07 04:24:58;;;;;;;7.43;6.40;;;6.30;99.90;;;;;;4935694;29;20410;-72
2022/05/07 04:27:24;;;;;;;6.53;5.63;;;6.30;99.90;;;;;;4936589;29;20976;-72
2022/05/07 04:29:49;;;;;;;6.20;5.60;;;6.40;99.90;;;;;;4934537;29;20551;-71
2022/05/07 04:32:15;;;;;;;7.70;5.73;;;6.40;99.90;;;;;;4933329;29;20223;-71
2022/05/07 04:34:40;;;;;;;9.70;6.80;;;6.40;99.90;;;;;;4933773;29;20186;-72
2022/05/07 04:37:06;;;;;;;7.30;5.80;;;6.50;99.90;;;;;;4933750;29;20341;-71
2022/05/07 04:39:34;;;;;;;11.33;6.70;;;6.50;99.90;;;;;;4936181;29;20201;-72
2022/05/07 04:42:00;;;;;;;5.83;5.33;;;6.60;99.90;;;;;;4937267;29;20705;-72
2022/05/07 04:44:26;;;;;;;5.70;5.20;;;6.70;99.90;;;;;;4937442;29;20843;-72
2022/05/07 04:46:52;;;;;;;6.73;5.77;;;6.70;99.90;;;;;;4937666;29;20414;-73
2022/05/07 04:49:19;;;;;;;7.37;6.67;;;6.80;99.90;;;;;;4937428;29;20177;-72
2022/05/07 04:51:46;;;;;;;7.70;5.53;;;6.90;99.90;;;;;;4936015;29;20289;-73
2022/05/07 04:54:12;;;;;;;6.83;6.17;;;6.90;99.90;;;;;;4926074;29;20423;-72
2022/05/07 04:56:37;;;;;;;7.37;6.10;;;7.00;99.90;;;;;;4918226;29;20442;-73
2022/05/07 04:59:03;;;;;;;6.80;6.17;;;7.10;99.90;;;;;;4918272;29;20647;-72
2022/05/07 05:01:28;;;;;;;6.20;5.60;;;7.30;99.90;;;;;;4918440;29;20208;-72
2022/05/07 05:03:54;;;;;;;6.87;6.07;;;7.40;99.90;;;;;;4918648;29;20238;-73
2022/05/07 05:06:19;;;;;;;6.37;5.70;;;7.50;99.90;;;;;;4918695;29;20231;-73
2022/05/07 05:08:45;;;;;;;7.67;5.93;;;7.70;99.90;;;;;;4918301;29;20548;-73
2022/05/07 05:11:10;;;;;;;5.60;5.10;;;7.90;99.90;;;;;;4918532;29;20602;-73
2022/05/07 05:13:36;;;;;;;8.37;6.60;;;8.10;99.90;;;;;;4918593;29;20266;-73
2022/05/07 05:16:01;;;;;;;9.03;5.63;;;8.80;99.90;;;;;;4917287;29;20203;-73
2022/05/07 05:18:27;;;;;;;5.73;4.13;;;10.80;99.90;;;;;;4918110;29;20611;-73
2022/05/07 05:20:53;;;;;;;5.27;4.77;;;13.20;99.90;;;;;;4917699;29;20546;-73
2022/05/07 05:23:18;;;;;;;4.27;3.60;;;15.20;99.90;;;;;;4917873;28;20248;-73
2022/05/07 05:25:45;;;;;;;8.10;4.80;;;16.30;99.90;;;;;;4917676;29;20250;-72
2022/05/07 05:28:14;;;;;;;4.70;4.30;;;17.10;99.90;;;;;;4917883;29;20174;-73
2022/05/07 05:30:39;;;;;;;4.20;3.90;;;18.50;99.90;;;;;;4917179;29;20426;-73
2022/05/07 05:33:05;;;;;;;6.00;4.20;;;18.80;99.90;;;;;;4917536;29;20414;-70
2022/05/07 05:35:31;;;;;;;4.90;4.40;;;19.20;99.90;;;;;;4916502;29;20580;-70
2022/05/07 05:37:56;;;;;;;5.80;4.07;;;19.50;99.90;;;;;;4916717;28;20178;-71
2022/05/07 05:40:22;;;;;;;5.63;4.37;;;19.50;99.90;;;;;;4916207;29;20178;-71
2022/05/07 05:42:47;;;;;;;4.80;4.40;;;19.80;99.90;;;;;;4916058;29;20289;-71
2022/05/07 05:45:13;;;;;;;6.50;4.67;;;19.80;99.90;;;;;;4916366;29;20237;-71
2022/05/07 05:47:38;;;;;;;5.23;4.40;;;20.00;99.90;;;;;;4916288;29;20186;-71
2022/05/07 05:50:04;;;;;;;4.93;4.37;;;20.20;99.90;;;;;;4915988;29;20182;-71
2022/05/07 05:52:31;;;;;;;5.63;5.13;;;21.00;99.90;;;;;;4916931;29;20202;-71
2022/05/07 05:54:56;;;;;;;5.60;5.10;;;20.80;99.90;;;;;;4917188;29;20798;-71
2022/05/07 05:57:22;;;;;;;5.63;4.90;;;20.70;99.90;;;;;;4916951;29;20423;-72
2022/05/07 05:59:48;;;;;;;6.20;5.70;;;20.90;99.90;;;;;;4917100;29;20722;-72
2022/05/07 06:02:17;;;;;;;6.33;5.73;;;20.80;99.90;;;;;;4916757;29;20300;-72
2022/05/07 06:04:43;;;;;;;10.17;6.60;;;20.30;99.90;;;;;;4916865;29;20254;-72
2022/05/07 06:07:08;;;;;;;12.47;6.70;;;19.90;99.90;;;;;;4917034;29;20414;-71
2022/05/07 06:09:34;;;;;;;10.80;6.80;;;19.60;99.90;;;;;;4916870;29;20174;-72
2022/05/07 06:12:00;;;;;;;9.40;7.43;;;19.10;99.90;;;;;;4916623;29;20647;-72
2022/05/07 06:14:25;;;;;;;7.20;6.60;;;18.50;99.90;;;;;;4916736;29;20178;-71
2022/05/07 06:16:51;;;;;;;7.50;6.80;;;18.40;99.90;;;;;;4917073;29;20194;-71
2022/05/07 06:19:17;;;;;;;10.27;8.00;;;18.20;99.90;;;;;;4916657;29;20179;-72
2022/05/07 06:21:42;;;;;;;9.80;7.87;;;18.40;99.90;;;;;;4916427;29;20217;-72
2022/05/07 06:29:36;;;;;;;8.33;6.77;;;18.30;99.90;;;;;;4916436;29;20470;-71
2022/05/07 06:32:02;;;;;;;9.00;7.53;;;18.30;99.90;;;;;;4916195;28;20461;-72
2022/05/07 06:34:27;;;;;;;11.17;7.63;;;18.40;99.90;;;;;;4916316;29;20650;-72
2022/05/07 06:36:54;;;;;;;9.70;8.70;;;18.10;99.90;;;;;;4919152;29;20269;-67
2022/05/07 06:39:20;;;;;;;10.07;8.10;;;18.30;99.90;;;;;;4922512;29;20283;-66
2022/05/07 06:41:48;;;;;;;9.37;8.00;;;18.30;99.90;;;;;;4920971;29;20461;-66
2022/05/07 06:44:13;;;;;;;13.23;8.73;;;18.60;99.90;;;;;;4921211;29;20414;-66
2022/05/07 06:46:39;;;;;;;11.33;8.27;;;18.60;99.90;;;;;;4916625;29;20925;-68
2022/05/07 06:49:04;;;;;;;9.83;7.83;;;18.70;99.90;;;;;;4916237;29;20202;-66
2022/05/07 06:51:32;;;;;;;11.40;8.10;;;18.80;99.90;;;;;;4915961;29;20278;-66
2022/05/07 06:53:57;;;;;;;9.87;8.20;;;19.10;99.90;;;;;;4916287;29;20555;-66
2022/05/07 06:56:23;;;;;;;8.60;7.07;;;19.00;99.90;;;;;;4916116;28;20423;-66
2022/05/07 06:58:49;;;;;;;8.87;8.00;;;19.20;99.90;;;;;;4916194;29;20217;-66
2022/05/07 07:01:14;;;;;;;8.33;7.10;;;19.10;99.90;;;;;;4915665;29;20194;-71
2022/05/07 07:03:40;;;;;;;8.40;7.57;;;19.00;99.90;;;;;;4915932;29;20237;-65
2022/05/07 07:06:06;;;;;;;10.57;7.43;;;18.70;99.90;;;;;;4916246;29;20180;-66
2022/05/07 07:08:32;;;;;;;10.53;8.13;;;18.80;99.90;;;;;;4915861;29;20249;-68
2022/05/07 07:10:58;;;;;;;9.87;7.50;;;19.30;99.90;;;;;;4915947;29;20206;-65
2022/05/07 07:13:24;;;;;;;8.60;7.80;;;19.40;99.90;;;;;;4915624;29;20414;-67
2022/05/07 07:15:50;;;;;;;9.03;7.70;;;19.20;99.90;;;;;;4916087;29;20474;-66
2022/05/07 07:18:16;;;;;;;11.40;8.20;;;19.40;99.90;;;;;;4916006;29;20261;-66
2022/05/07 07:20:44;;;;;;;10.53;8.40;;;19.60;99.90;;;;;;4915473;29;20493;-66
2022/05/07 07:23:11;;;;;;;11.97;8.73;;;19.80;99.90;;;;;;4915837;29;20510;-66
2022/05/07 07:25:37;;;;;;;12.10;8.77;;;19.80;99.90;;;;;;4915512;29;20429;-66
2022/05/07 07:28:03;;;;;;;13.23;9.03;;;20.10;99.90;;;;;;4915755;29;20417;-69
2022/05/07 07:30:29;;;;;;;14.90;8.97;;;20.00;99.90;;;;;;4915165;29;20418;-67
2022/05/07 07:32:54;;;;;;;11.43;7.97;;;20.00;99.90;;;;;;4920259;28;20227;-66
2022/05/07 07:35:20;;;;;;;10.00;8.83;;;20.20;99.90;;;;;;4914954;29;20430;-71
2022/05/07 07:37:46;;;;;;;9.23;8.30;;;20.30;99.90;;;;;;4915328;29;20181;-67
2022/05/07 07:40:14;;;;;;;11.23;7.60;;;20.40;99.90;;;;;;4923117;29;20182;-66
2022/05/07 07:42:43;;;;;;;11.10;8.70;;;20.30;99.90;;;;;;4934085;29;20288;-66
2022/05/07 07:47:57;;;;;;;11.63;10.40;;;20.70;99.90;;;;;;4934796;29;20416;-67
2022/05/07 07:50:24;;;;;;;9.93;8.90;;;20.90;99.90;;;;;;4933946;29;20441;-63
2022/05/07 07:52:54;;;;;;;12.77;9.63;;;20.50;99.90;;;;;;4934238;29;20444;-66
2022/05/07 07:55:22;;;;;;;14.87;9.83;;;21.00;99.90;;;;;;4938895;29;20482;-66
2022/05/07 07:57:49;;;;;;;10.60;9.50;;;21.10;99.90;;;;;;4953382;28;20420;-66
2022/05/07 08:00:16;;;;;;;11.13;9.63;;;21.40;99.90;;;;;;4953349;28;20421;-67
2022/05/07 08:02:53;;;;;;;10.60;9.37;;;21.30;99.90;;;;;;4952939;28;20869;-67
2022/05/07 08:05:24;;;;;;;13.37;10.20;;;21.50;99.90;;;;;;4952425;28;20417;-67
2022/05/07 08:13:19;;;;;;;16.17;10.43;;;22.40;99.90;;;;;;4954057;28;20431;-66
2022/05/07 08:15:45;;;;;;;18.67;9.30;;;22.30;99.90;;;;;;4957200;28;20432;-66
2022/05/07 08:18:12;;;;;;;12.30;8.93;;;22.20;99.90;;;;;;4957226;28;20173;-66
2022/05/07 08:20:37;;;;;;;11.23;10.10;;;22.30;99.90;;;;;;4956837;28;20420;-66
2022/05/07 08:23:03;;;;;;;10.30;9.23;;;22.50;99.90;;;;;;4957008;28;20460;-66
2022/05/07 08:25:28;;;;;;;10.70;9.63;;;22.50;99.90;;;;;;4957032;28;20179;-65
2022/05/07 08:27:54;;;;;;;12.30;10.13;;;22.50;99.90;;;;;;4957233;28;20172;-66
2022/05/07 08:30:20;;;;;;;16.60;10.60;;;22.70;99.90;;;;;;4956866;28;20228;-66
2022/05/07 08:32:45;;;;;;;10.43;9.50;;;22.70;99.90;;;;;;4956856;28;20250;-66
2022/05/07 08:35:11;;;;;;;14.50;11.00;;;23.20;99.90;;;;;;4956839;28;20185;-66
2022/05/07 08:37:36;;;;;;;18.50;11.40;;;23.30;99.90;;;;;;4956718;28;20307;-66
2022/05/07 08:40:02;;;;;;;11.77;10.30;;;23.30;99.90;;;;;;4956788;28;20280;-66
2022/05/07 08:42:31;;;;;;;10.33;9.43;;;23.70;99.90;;;;;;4956281;28;20267;-65
2022/05/07 08:44:57;;;;;;;12.67;11.00;;;24.20;99.90;;;;;;4956684;28;20181;-66
2022/05/07 08:47:24;;;;;;;12.13;10.17;;;24.10;99.90;;;;;;4956514;28;20455;-66
2022/05/07 08:49:50;;;;;;;12.63;9.47;;;24.00;99.90;;;;;;4956535;28;20481;-66
2022/05/07 08:52:17;;;;;;;10.90;9.80;;;24.00;99.90;;;;;;4956382;28;20440;-66
2022/05/07 08:54:44;;;;;;;11.20;9.30;;;24.30;99.90;;;;;;4956502;28;20476;-66
2022/05/07 08:57:10;;;;;;;15.90;10.20;;;24.70;99.90;;;;;;4956544;28;20420;-66
2022/05/07 08:59:36;;;;;;;11.40;10.30;;;25.20;99.90;;;;;;4956297;28;20980;-66
2022/05/07 09:02:03;;;;;;;11.80;10.57;;;25.60;99.90;;;;;;4956335;28;20535;-67
2022/05/07 09:04:28;;;;;;;12.57;10.30;;;25.30;99.90;;;;;;4956751;28;20173;-66
2022/05/07 09:06:57;;;;;;;12.03;8.93;;;24.80;99.90;;;;;;4956349;28;20417;-67
2022/05/07 09:09:23;;;;;;;16.43;9.20;;;25.10;99.90;;;;;;4956187;28;20271;-65
2022/05/07 09:11:48;;;;;;;10.73;9.63;;;24.90;99.90;;;;;;4956223;28;20531;-65
2022/05/07 09:14:18;;;;;;;9.37;8.53;;;24.70;99.90;;;;;;4956228;28;20176;-65
2022/05/07 09:16:46;;;;;;;11.33;10.20;;;24.80;99.90;;;;;;4956129;29;20192;-66
2022/05/07 09:19:27;;;;;;;10.20;8.80;;;25.10;99.90;;;;;;4956339;28;20408;-67
2022/05/07 09:22:07;;;;;;;8.93;6.90;;;25.30;99.90;;;;;;4955752;28;20886;-66
2022/05/07 09:24:33;;;;;;;7.23;6.67;;;25.80;99.90;;;;;;4955820;28;20536;-66
2022/05/07 09:26:59;;;;;;;4.10;3.80;;;25.20;99.90;;;;;;4956187;28;20939;-66
2022/05/07 09:29:28;;;;;;;4.73;4.30;;;25.60;99.90;;;;;;4955719;28;20176;-67
2022/05/07 09:31:54;;;;;;;6.33;5.07;;;25.10;99.90;;;;;;4955659;28;20235;-66
2022/05/07 09:37:18;;;;;;;7.67;5.53;;;25.40;99.90;;;;;;4956208;29;20255;-66
2022/05/07 09:39:47;;;;;;;4.97;4.57;;;25.50;99.90;;;;;;4955554;28;20444;-66
2022/05/07 09:42:16;;;;;;;6.47;5.80;;;25.90;99.90;;;;;;4955442;28;20854;-66
2022/05/07 09:44:43;;;;;;;6.53;5.43;;;26.20;99.90;;;;;;4952544;28;20914;-66
2022/05/07 09:47:11;;;;;;;5.33;4.80;;;26.50;99.90;;;;;;4925394;29;20438;-66
2022/05/07 09:50:19;;;;;;;10.70;4.67;;;26.80;99.90;;;;;;4917283;29;20792;-66
2022/05/07 09:52:23;;;;;;;4.60;4.27;;;27.00;99.90;;;;;;4916958;29;20446;-66
2022/05/07 09:57:33;;;;;;;4.30;3.87;;;26.70;99.80;;;;;;4940989;29;20301;-66
2022/05/07 10:00:07;;;;;;;6.67;4.10;;;26.40;99.20;;;;;;4955377;28;20925;-66
2022/05/07 10:02:45;;;;;;;4.23;3.70;;;26.50;99.10;;;;;;4969970;28;20219;-67
2022/05/07 10:05:26;;;;;;;4.80;4.27;;;26.40;99.90;;;;;;4955231;28;20514;-66
2022/05/07 10:08:06;;;;;;;4.27;3.97;;;26.70;99.70;;;;;;4955425;28;20910;-65
2022/05/07 10:10:36;;;;;;;5.53;3.23;;;26.30;97.60;;;;;;4955510;28;20417;-65
2022/05/07 10:13:04;;;;;;;6.00;3.60;;;26.30;96.40;;;;;;4955607;28;20419;-66
2022/05/07 10:15:30;;;;;;;4.40;3.30;;;26.30;97.00;;;;;;4955125;28;20408;-66
2022/05/07 10:18:01;;;;;;;6.63;4.20;;;25.70;96.00;;;;;;4955263;28;20959;-67
2022/05/07 10:20:38;;;;;;;4.13;2.93;;;24.60;97.10;;;;;;4954947;28;20180;-66
2022/05/07 10:23:03;;;;;;;6.43;3.60;;;24.40;96.20;;;;;;4954998;28;20450;-66
2022/05/07 10:25:29;;;;;;;3.37;2.63;;;24.60;97.50;;;;;;4954843;28;20408;-66
2022/05/07 10:27:55;;;;;;;5.40;2.77;;;25.00;94.50;;;;;;4954988;28;20177;-66
2022/05/07 10:30:22;;;;;;;3.83;2.07;;;25.30;94.70;;;;;;4955503;28;20551;-68
2022/05/07 10:32:58;;;;;;;4.33;2.80;;;26.00;95.90;;;;;;4958064;28;20228;-66
2022/05/07 10:35:40;;;;;;;4.30;3.20;;;26.20;95.30;;;;;;4956487;28;20427;-67
2022/05/07 10:38:10;;;;;;;4.00;3.10;;;26.40;97.00;;;;;;4954572;28;20412;-67
2022/05/07 10:40:36;;;;;;;4.87;3.30;;;26.70;96.00;;;;;;4954578;28;20419;-64
2022/05/07 10:43:03;;;;;;;4.03;3.20;;;27.10;97.30;;;;;;4954648;28;20464;-66
2022/05/07 10:45:39;;;;;;;3.70;3.17;;;27.70;95.20;;;;;;4954408;28;20176;-68
2022/05/07 10:48:15;;;;;;;4.70;3.20;;;27.20;94.30;;;;;;4954436;28;20779;-65
2022/05/07 10:50:50;;;;;;;3.53;3.23;;;26.80;94.00;;;;;;4954082;28;20483;-65
2022/05/07 10:53:15;;;;;;;2.97;2.70;;;26.70;93.40;;;;;;4954753;28;20406;-66
2022/05/07 10:55:41;;;;;;;5.23;2.43;;;26.40;91.80;;;;;;4954444;28;20965;-66
2022/05/07 10:58:06;;;;;;;3.17;2.70;;;26.40;92.00;;;;;;4954192;28;20185;-66
2022/05/07 11:00:34;;;;;;;3.40;2.10;;;26.80;92.30;;;;;;4954141;28;20555;-64
2022/05/07 11:03:00;;;;;;;4.10;2.60;;;26.60;90.70;;;;;;4954117;28;20196;-66
2022/05/07 11:05:33;;;;;;;2.60;2.50;;;26.10;90.90;;;;;;4954075;28;20435;-66
2022/05/07 11:08:00;;;;;;;6.47;2.70;;;25.20;92.30;;;;;;4954347;28;20653;-66
2022/05/07 11:10:26;;;;;;;3.70;1.87;;;25.10;91.60;;;;;;4953788;28;20445;-66
2022/05/07 11:12:52;;;;;;;6.40;2.40;;;24.90;92.40;;;;;;4954019;28;20495;-67
2022/05/07 11:15:24;;;;;;;2.33;2.17;;;24.60;91.70;;;;;;4953946;28;20264;-67
2022/05/07 11:17:50;;;;;;;3.93;2.50;;;24.60;92.00;;;;;;4954073;28;20527;-66
2022/05/07 11:20:27;;;;;;;2.67;2.47;;;24.40;91.50;;;;;;4953918;28;20504;-66
2022/05/07 11:23:00;;;;;;;2.50;2.30;;;24.70;93.10;;;;;;4953811;28;20216;-66
2022/05/07 11:25:27;;;;;;;4.03;2.47;;;25.20;93.50;;;;;;4953613;28;20666;-67
2022/05/07 11:27:54;;;;;;;2.30;2.20;;;25.50;92.60;;;;;;4954080;28;20440;-67
2022/05/07 11:30:19;;;;;;;2.10;1.87;;;25.70;93.20;;;;;;4953957;28;20405;-66
2022/05/07 11:32:45;;;;;;;2.57;2.37;;;25.70;91.10;;;;;;4953293;28;20471;-66
2022/05/07 11:35:11;;;;;;;4.53;2.57;;;25.70;91.70;;;;;;4953594;28;20177;-66
2022/05/07 11:37:41;;;;;;;1.90;1.70;;;25.70;92.90;;;;;;4953506;28;20223;-66
2022/05/07 11:40:08;;;;;;;4.00;2.40;;;25.40;90.70;;;;;;4953476;28;20177;-65
2022/05/07 11:42:39;;;;;;;3.43;2.47;;;24.90;90.50;;;;;;4953075;28;20901;-67
2022/05/07 11:45:33;;;;;;;3.00;2.77;;;24.80;92.60;;;;;;4953502;28;20511;-65
2022/05/07 11:48:18;;;;;;;2.37;2.17;;;24.80;92.10;;;;;;4952681;28;20418;-67
2022/05/07 11:50:55;;;;;;;6.20;3.17;;;25.00;92.70;;;;;;4953048;28;20885;-66
2022/05/07 11:53:27;;;;;;;4.83;2.10;;;25.30;94.40;;;;;;4953344;28;20416;-65
2022/05/07 11:56:03;;;;;;;2.37;2.23;;;25.50;94.70;;;;;;4953254;28;20999;-65
2022/05/07 11:58:37;;;;;;;4.63;2.20;;;25.60;93.70;;;;;;4953313;28;20423;-66
2022/05/07 12:01:03;;;;;;;4.10;2.57;;;25.40;94.40;;;;;;4952975;28;20854;-65
2022/05/07 12:03:28;;;;;;;2.03;1.90;;;25.00;94.10;;;;;;4953061;28;20459;-65
2022/05/07 12:05:56;;;;;;;6.70;2.97;;;24.30;93.10;;;;;;4953202;28;20204;-66
2022/05/07 12:08:31;;;;;;;3.50;2.83;;;23.70;93.40;;;;;;4953284;28;20180;-64
2022/05/07 12:10:57;;;;;;;4.87;2.03;;;23.40;94.70;;;;;;4953191;28;20799;-66
2022/05/07 12:13:24;;;;;;;2.97;2.43;;;23.40;94.90;;;;;;4952997;28;20420;-66
2022/05/07 12:18:35;;;;;;;2.73;2.33;;;23.50;94.10;;;;;;4934184;29;20432;-65
2022/05/07 12:21:00;;;;;;;2.00;1.90;;;23.60;94.50;;;;;;4933732;29;20429;-65
2022/05/07 12:31:38;;;;;;;6.37;2.33;;;23.40;93.40;;;;;;4933496;29;20893;-65
2022/05/07 12:34:04;;;;;;;4.43;1.60;;;23.10;92.40;;;;;;4933818;29;20430;-65
2022/05/07 12:36:31;;;;;;;5.83;1.60;;;23.20;93.00;;;;;;4933748;29;20188;-65
2022/05/07 12:38:59;;;;;;;2.67;2.37;;;23.00;92.10;;;;;;4933691;29;20480;-64
2022/05/07 12:41:31;;;;;;;2.13;1.93;;;23.00;92.40;;;;;;4933378;29;20437;-65
2022/05/07 12:43:58;;;;;;;2.00;1.83;;;23.20;91.40;;;;;;4933857;29;20424;-66
2022/05/07 12:46:24;;;;;;;3.47;2.10;;;23.20;92.10;;;;;;4933739;29;20501;-65
2022/05/07 12:48:50;;;;;;;1.60;1.50;;;23.20;91.60;;;;;;4933849;29;20417;-65
2022/05/07 12:51:16;;;;;;;3.70;2.07;;;23.00;91.30;;;;;;4933511;29;20566;-64
2022/05/07 12:53:42;;;;;;;7.80;1.50;;;23.20;91.70;;;;;;4933492;29;20189;-66
2022/05/07 12:56:07;;;;;;;2.40;1.60;;;23.30;92.20;;;;;;4934019;29;20601;-66
2022/05/07 12:58:34;;;;;;;3.83;1.80;;;23.60;93.20;;;;;;4933543;29;20666;-66
2022/05/07 13:01:00;;;;;;;2.10;1.70;;;23.80;91.50;;;;;;4936518;29;20198;-66
2022/05/07 13:03:26;;;;;;;5.67;2.00;;;23.80;91.00;;;;;;4937145;29;20473;-66
2022/05/07 13:05:51;;;;;;;3.20;1.70;;;23.90;92.30;;;;;;4938996;29;20955;-66
2022/05/07 13:08:17;;;;;;;3.70;1.77;;;24.10;92.40;;;;;;4940427;29;20178;-66
2022/05/07 13:10:43;;;;;;;2.40;1.53;;;24.00;91.80;;;;;;4937464;29;20556;-65
2022/05/07 13:13:09;;;;;;;4.50;1.73;;;24.00;92.90;;;;;;4937187;29;20188;-66
2022/05/07 13:15:35;;;;;;;2.30;1.43;;;24.10;93.40;;;;;;4936588;29;20496;-65
2022/05/07 13:18:00;;;;;;;2.97;1.77;;;24.00;91.30;;;;;;4936974;29;20543;-65
2022/05/07 13:20:28;;;;;;;1.60;1.27;;;23.70;91.20;;;;;;4936499;29;20213;-65
2022/05/07 13:22:54;;;;;;;3.90;1.43;;;23.30;91.40;;;;;;4936913;29;20213;-65
2022/05/07 13:25:22;;;;;;;4.60;1.43;;;23.20;90.50;;;;;;4936859;29;20970;-64
2022/05/07 13:27:48;;;;;;;1.47;1.37;;;23.00;91.30;;;;;;4936834;29;20417;-66
2022/05/07 13:30:16;;;;;;;2.60;1.47;;;23.10;92.20;;;;;;4936557;29;20935;-65
2022/05/07 13:32:42;;;;;;;2.63;2.50;;;23.40;91.70;;;;;;4936447;29;20518;-66
2022/05/07 13:35:09;;;;;;;4.00;1.70;;;23.40;93.00;;;;;;4936523;29;20425;-66
2022/05/07 13:37:35;;;;;;;3.83;1.60;;;23.30;91.60;;;;;;4936322;29;20197;-66
2022/05/07 13:40:00;;;;;;;3.60;1.83;;;23.10;90.70;;;;;;4936505;29;20417;-65
2022/05/07 13:42:26;;;;;;;3.60;1.90;;;22.80;91.40;;;;;;4934933;29;20536;-65
2022/05/07 13:44:52;;;;;;;3.40;1.57;;;22.70;91.20;;;;;;4936496;29;20177;-65
2022/05/07 13:47:19;;;;;;;2.73;1.33;;;22.50;91.20;;;;;;4936454;29;20205;-65
2022/05/07 13:49:45;;;;;;;3.27;1.70;;;22.40;92.00;;;;;;4936320;29;20185;-66
2022/05/07 13:52:11;;;;;;;2.50;1.70;;;22.20;92.40;;;;;;4934613;29;20446;-65
2022/05/07 13:54:37;;;;;;;2.40;2.20;;;22.20;92.20;;;;;;4935594;29;20734;-66
2022/05/07 13:57:03;;;;;;;3.13;1.77;;;22.20;92.10;;;;;;4935652;29;20453;-66
2022/05/07 13:59:28;;;;;;;3.63;1.87;;;22.10;93.00;;;;;;4935448;29;20205;-67
2022/05/07 14:01:55;;;;;;;1.70;1.33;;;22.30;93.80;;;;;;4935307;29;20217;-65
2022/05/07 14:04:20;;;;;;;4.67;1.90;;;22.50;94.30;;;;;;4935402;29;20173;-65
2022/05/07 14:06:46;;;;;;;5.70;3.00;;;22.80;94.70;;;;;;4935926;29;20398;-66
2022/05/07 14:09:12;;;;;;;2.70;2.10;;;22.90;92.20;;;;;;4936077;29;20178;-67
2022/05/07 14:11:38;;;;;;;6.00;1.80;;;23.10;92.20;;;;;;4934668;29;20201;-66
2022/05/07 14:14:04;;;;;;;6.53;1.70;;;23.10;91.50;;;;;;4936201;29;20440;-66
2022/05/07 14:16:30;;;;;;;2.00;1.80;;;23.40;91.30;;;;;;4935772;29;20420;-65
2022/05/07 14:18:56;;;;;;;4.73;1.77;;;23.50;92.00;;;;;;4935898;29;20656;-66
2022/05/07 14:21:23;;;;;;;2.50;1.53;;;23.40;91.30;;;;;;4935232;29;20200;-67
2022/05/07 14:23:48;;;;;;;4.83;2.03;;;23.40;91.40;;;;;;4935703;29;20165;-65
2022/05/07 14:26:14;;;;;;;2.63;2.13;;;23.30;92.10;;;;;;4935606;29;20424;-65
2022/05/07 14:28:39;;;;;;;3.20;1.90;;;23.20;92.70;;;;;;4935361;29;20182;-65
2022/05/07 14:31:05;;;;;;;5.80;2.17;;;22.80;91.70;;;;;;4935240;29;20535;-66
2022/05/07 14:33:31;;;;;;;2.20;2.10;;;22.60;92.20;;;;;;4935566;29;20181;-66
2022/05/07 14:35:56;;;;;;;6.30;2.07;;;22.70;93.80;;;;;;4935537;29;20177;-65
2022/05/07 14:38:22;;;;;;;2.93;2.63;;;22.80;94.70;;;;;;4935561;29;20646;-66
2022/05/07 14:40:48;;;;;;;2.63;2.30;;;22.90;95.50;;;;;;4935063;29;20189;-66
2022/05/07 14:43:14;;;;;;;4.07;2.50;;;23.00;94.10;;;;;;4935312;29;20292;-65
2022/05/07 14:45:40;;;;;;;3.20;2.23;;;23.00;95.60;;;;;;4935215;29;20850;-65
2022/05/07 14:48:05;;;;;;;4.20;2.50;;;23.10;94.50;;;;;;4935246;29;20265;-65
2022/05/07 14:50:31;;;;;;;2.23;2.10;;;23.10;93.90;;;;;;4934855;29;20264;-65
2022/05/07 14:52:57;;;;;;;2.30;2.20;;;23.00;94.50;;;;;;4935190;29;20232;-64
2022/05/07 14:55:23;;;;;;;2.70;2.50;;;23.00;93.50;;;;;;4934914;29;20181;-65
2022/05/07 14:57:49;;;;;;;7.50;3.27;;;22.90;94.20;;;;;;4935293;29;20192;-65
2022/05/07 15:00:15;;;;;;;3.13;2.33;;;22.80;94.20;;;;;;4935011;29;20177;-65